createdAt,value
2019-03-10T00:00:34.157Z,100048.29
2019-03-10T00:03:24.026Z,100048.94
2019-03-10T00:06:14.097Z,100060.10
2019-03-10T00:09:04.837Z,100069.22
2019-03-10T00:11:56.023Z,100053.22
2019-03-10T00:14:47.941Z,100064.07
2019-03-10T00:17:37.933Z,100063.17
2019-03-10T00:20:28.635Z,100066.88
2019-03-10T00:23:18.587Z,100067.30
2019-03-10T00:26:08.417Z,100063.91
2019-03-10T00:28:58.721Z,100065.54
2019-03-10T00:31:48.710Z,100079.38
2019-03-10T00:34:38.874Z,100098.92
2019-03-10T00:37:29.193Z,100099.12
2019-03-10T00:41:06.618Z,100102.86
2019-03-10T00:44:37.501Z,100100.59
2019-03-10T00:48:18.993Z,100086.58
2019-03-10T00:51:58.907Z,100075.00
2019-03-10T00:54:48.959Z,100069.02
2019-03-10T00:57:38.640Z,100064.03
2019-03-10T01:00:28.526Z,100067.52
2019-03-10T01:03:18.397Z,100077.12
2019-03-10T01:06:08.754Z,100072.03
2019-03-10T01:08:58.699Z,100078.33
2019-03-10T01:11:49.077Z,100073.56
2019-03-10T01:14:38.765Z,100067.36
2019-03-10T01:17:29.674Z,100068.48
2019-03-10T01:20:19.471Z,100058.53
2019-03-10T01:23:09.399Z,100046.94
2019-03-10T01:25:59.495Z,100044.21
2019-03-10T01:28:49.291Z,100042.54
2019-03-10T01:32:11.437Z,100045.60
2019-03-10T01:35:06.991Z,100043.19
2019-03-10T01:37:56.949Z,100050.00
2019-03-10T01:40:47.024Z,100036.96
2019-03-10T01:43:36.821Z,100039.80
2019-03-10T01:46:26.630Z,100009.48
2019-03-10T01:49:17.771Z,100021.47
2019-03-10T01:52:07.669Z,100011.91
2019-03-10T01:54:57.649Z,100015.20
2019-03-10T01:57:47.950Z,100018.90
2019-03-10T02:00:37.935Z,100004.91
2019-03-10T02:03:27.961Z,100002.70
2019-03-10T02:06:19.304Z,99992.54
2019-03-10T02:09:09.395Z,99979.54
2019-03-10T02:12:00.898Z,99978.67
2019-03-10T02:14:50.431Z,99981.88
2019-03-10T02:17:40.039Z,99983.08
2019-03-10T02:20:30.154Z,99988.11
2019-03-10T02:23:20.322Z,99987.95
2019-03-10T02:26:10.139Z,99977.55
2019-03-10T02:29:00.226Z,99971.97
2019-03-10T02:31:50.050Z,99970.47
2019-03-10T02:34:40.359Z,99963.74
2019-03-10T02:37:29.977Z,99964.11
2019-03-10T02:40:20.067Z,99961.21
2019-03-10T02:43:09.538Z,99953.42
2019-03-10T02:45:59.488Z,99942.13
2019-03-10T02:48:49.471Z,99938.92
2019-03-10T02:51:39.544Z,99931.83
2019-03-10T02:54:29.529Z,99925.14
2019-03-10T02:57:19.452Z,99922.76
2019-03-10T03:00:11.724Z,99909.13
2019-03-10T03:03:01.307Z,99914.59
2019-03-10T03:05:51.411Z,99904.13
2019-03-10T03:08:41.367Z,99904.48
2019-03-10T03:11:31.066Z,99905.08
2019-03-10T03:14:20.553Z,99899.56
2019-03-10T03:17:10.558Z,99895.80
2019-03-10T03:20:00.596Z,99892.34
2019-03-10T03:22:51.313Z,99891.31
2019-03-10T03:25:41.542Z,99893.42
2019-03-10T03:28:31.559Z,99888.63
2019-03-10T03:31:21.588Z,99892.89
2019-03-10T03:34:11.150Z,99892.07
2019-03-10T03:37:01.430Z,99895.35
2019-03-10T03:39:54.009Z,99884.93
2019-03-10T03:42:44.009Z,99626.86
2019-03-10T03:45:34.115Z,99866.66
2019-03-10T03:48:24.065Z,99864.11
2019-03-10T03:51:14.601Z,99861.42
2019-03-10T03:54:05.392Z,99859.17
2019-03-10T03:56:55.308Z,99853.58
2019-03-10T03:59:45.323Z,99850.70
2019-03-10T04:02:38.180Z,99857.69
2019-03-10T04:05:28.021Z,99848.33
2019-03-10T04:08:18.404Z,99847.84
2019-03-10T04:11:08.713Z,99838.27
2019-03-10T04:13:59.763Z,99837.52
2019-03-10T04:16:49.234Z,99835.92
2019-03-10T04:19:39.002Z,99825.80
2019-03-10T04:22:28.649Z,99827.14
2019-03-10T04:25:20.016Z,99827.98
2019-03-10T04:28:10.218Z,99826.56
2019-03-10T04:31:00.054Z,99824.97
2019-03-10T04:33:50.136Z,99824.70
2019-03-10T04:36:39.957Z,99816.36
2019-03-10T04:39:29.451Z,99815.20
2019-03-10T04:42:19.315Z,99811.91
2019-03-10T04:45:10.188Z,99810.26
2019-03-10T04:48:00.484Z,99804.87
2019-03-10T04:50:50.399Z,99800.06
2019-03-10T04:53:41.713Z,99799.48
2019-03-10T04:56:56.326Z,99799.79
2019-03-10T04:59:46.052Z,99794.92
2019-03-10T05:02:36.001Z,99790.64
2019-03-10T05:05:25.907Z,99783.90
2019-03-10T05:08:15.586Z,99784.48
2019-03-10T05:11:05.696Z,99774.98
2019-03-10T05:13:54.813Z,99777.47
2019-03-10T05:16:44.825Z,99776.40
2019-03-10T05:19:34.389Z,99765.69
2019-03-10T05:22:24.391Z,99768.62
2019-03-10T05:25:14.907Z,99760.11
2019-03-10T05:28:05.038Z,99759.08
2019-03-10T05:30:55.083Z,99751.88
2019-03-10T05:33:45.312Z,99743.09
2019-03-10T05:36:34.818Z,99735.63
2019-03-10T05:39:24.770Z,99729.59
2019-03-10T05:42:14.354Z,99730.11
2019-03-10T05:45:04.553Z,99722.27
2019-03-10T05:47:54.681Z,99719.14
2019-03-10T05:50:44.509Z,99718.86
2019-03-10T05:53:34.306Z,99700.62
2019-03-10T05:56:24.410Z,99697.17
2019-03-10T05:59:14.262Z,99701.02
2019-03-10T06:02:04.075Z,99695.94
2019-03-10T06:04:53.878Z,99689.00
2019-03-10T06:07:44.126Z,99680.66
2019-03-10T06:10:34.001Z,99681.55
2019-03-10T06:13:24.203Z,99676.09
2019-03-10T06:16:13.998Z,99668.47
2019-03-10T06:19:04.002Z,99662.87
2019-03-10T06:21:54.196Z,99649.55
2019-03-10T06:24:44.069Z,99649.44
2019-03-10T06:27:34.361Z,99635.55
2019-03-10T06:30:24.281Z,99630.27
2019-03-10T06:33:14.287Z,99615.05
2019-03-10T06:36:03.996Z,99610.23
2019-03-10T06:38:55.201Z,99604.06
2019-03-10T06:41:45.080Z,99599.39
2019-03-10T06:44:34.761Z,99588.14
2019-03-10T06:47:24.130Z,99586.73
2019-03-10T06:50:13.993Z,99581.92
2019-03-10T06:53:04.025Z,99567.09
2019-03-10T06:55:53.859Z,99573.94
2019-03-10T06:58:44.071Z,99578.40
2019-03-10T07:01:34.017Z,99577.10
2019-03-10T07:04:23.663Z,99623.00
2019-03-10T07:07:13.434Z,99573.16
2019-03-10T07:10:03.470Z,99576.66
2019-03-10T07:12:53.301Z,99574.78
2019-03-10T07:15:43.756Z,99574.31
2019-03-10T07:18:33.873Z,99575.71
2019-03-10T07:21:24.171Z,99567.84
2019-03-10T07:24:14.272Z,99566.47
2019-03-10T07:27:04.244Z,99557.20
2019-03-10T07:30:03.929Z,99556.00
2019-03-10T07:33:28.169Z,99550.70
2019-03-10T07:36:27.657Z,99553.55
2019-03-10T07:39:30.533Z,99544.17
2019-03-10T07:42:32.894Z,99542.14
2019-03-10T07:45:34.974Z,99539.14
2019-03-10T07:48:45.232Z,99533.73
2019-03-10T07:51:50.678Z,99528.23
2019-03-10T07:55:00.431Z,99520.34
2019-03-10T07:58:06.706Z,99514.53
2019-03-10T08:01:18.484Z,99518.08
2019-03-10T08:04:27.029Z,99511.09
2019-03-10T08:07:28.364Z,99504.14
2019-03-10T08:10:36.508Z,99496.39
2019-03-10T08:13:41.711Z,99492.88
2019-03-10T08:16:56.497Z,99479.33
2019-03-10T08:20:04.695Z,99474.87
2019-03-10T08:23:00.612Z,99474.87
2019-03-10T08:26:08.842Z,99475.45
2019-03-10T08:29:26.542Z,99466.27
2019-03-10T08:32:33.886Z,99461.30
2019-03-10T08:35:41.039Z,99459.16
2019-03-10T08:38:52.776Z,99463.08
2019-03-10T08:41:48.853Z,99453.14
2019-03-10T08:44:45.348Z,99446.41
2019-03-10T08:47:54.830Z,99435.16
2019-03-10T08:50:51.064Z,99430.91
2019-03-10T08:53:54.786Z,99421.37
2019-03-10T08:56:56.529Z,99417.39
2019-03-10T09:00:05.681Z,99416.56
2019-03-10T09:03:13.876Z,99407.61
2019-03-10T09:06:32.240Z,99405.69
2019-03-10T09:09:45.973Z,99399.73
2019-03-10T09:12:51.911Z,99399.16
2019-03-10T09:16:04.260Z,99398.80
2019-03-10T09:19:22.199Z,99393.72
2019-03-10T09:22:34.108Z,99379.73
2019-03-10T09:26:02.670Z,99380.14
2019-03-10T09:29:09.963Z,99366.27
2019-03-10T09:32:11.001Z,99354.44
2019-03-10T09:35:06.328Z,99340.20
2019-03-10T09:38:05.600Z,99335.48
2019-03-10T09:41:05.128Z,99333.05
2019-03-10T09:44:03.877Z,99321.56
2019-03-10T09:47:21.941Z,99312.52
2019-03-10T09:50:28.329Z,99302.92
2019-03-10T09:53:37.333Z,99287.13
2019-03-10T09:56:55.944Z,99278.78
2019-03-10T10:00:03.486Z,99268.84
2019-03-10T10:03:12.182Z,99270.23
2019-03-10T10:06:16.340Z,99259.81
2019-03-10T10:09:25.494Z,99240.97
2019-03-10T10:12:32.072Z,99227.03
2019-03-10T10:15:44.281Z,99227.89
2019-03-10T10:18:51.682Z,99211.81
2019-03-10T10:21:50.348Z,99213.59
2019-03-10T10:24:58.917Z,99208.25
2019-03-10T10:27:57.038Z,99202.00
2019-03-10T10:31:01.975Z,99190.79
2019-03-10T10:34:06.071Z,99178.59
2019-03-10T10:37:14.914Z,99162.08
2019-03-10T10:40:18.894Z,99147.74
2019-03-10T10:43:30.451Z,99151.53
2019-03-10T10:46:43.937Z,99137.05
2019-03-10T10:49:51.622Z,99120.37
2019-03-10T10:53:01.896Z,99109.55
2019-03-10T10:56:03.464Z,99103.69
2019-03-10T10:59:05.321Z,99097.22
2019-03-10T11:02:03.514Z,99088.31
2019-03-10T11:05:18.874Z,99070.35
2019-03-10T11:08:20.424Z,99062.83
2019-03-10T11:11:28.201Z,99055.05
2019-03-10T11:14:40.730Z,99045.06
2019-03-10T11:17:44.760Z,99028.75
2019-03-10T11:20:44.066Z,99012.94
2019-03-10T11:24:02.050Z,99007.55
2019-03-10T11:27:04.256Z,99002.77
2019-03-10T11:30:03.042Z,98987.20
2019-03-10T11:33:01.538Z,98973.48
2019-03-10T11:36:05.039Z,98955.25
2019-03-10T11:39:11.097Z,98944.55
2019-03-10T11:42:28.142Z,98928.41
2019-03-10T11:45:35.856Z,98937.58
2019-03-10T11:48:44.562Z,98910.87
2019-03-10T11:51:45.184Z,98913.30
2019-03-10T11:54:52.472Z,98916.32
2019-03-10T11:57:47.279Z,98913.95
2019-03-10T12:00:42.068Z,98920.69
2019-03-10T12:03:53.102Z,98911.66
2019-03-10T12:07:00.948Z,98901.47
2019-03-10T12:09:50.582Z,98862.05
2019-03-10T12:12:40.705Z,98856.24
2019-03-10T12:15:30.642Z,98835.58
2019-03-10T12:18:20.417Z,98815.94
2019-03-10T12:21:10.244Z,98803.30
2019-03-10T12:24:00.388Z,98800.41
2019-03-10T12:26:50.656Z,98809.20
2019-03-10T12:29:42.146Z,98798.53
2019-03-10T12:32:32.013Z,98805.61
2019-03-10T12:35:22.015Z,98802.73
2019-03-10T12:38:11.642Z,98798.80
2019-03-10T12:41:01.688Z,98783.03
2019-03-10T12:43:52.499Z,98772.61
2019-03-10T12:46:42.085Z,98762.37
2019-03-10T12:49:31.640Z,98761.97
2019-03-10T12:52:21.847Z,98749.97
2019-03-10T12:55:11.793Z,98741.70
2019-03-10T12:58:01.509Z,98747.69
2019-03-10T13:00:51.529Z,98745.80
2019-03-10T13:03:41.527Z,98743.66
2019-03-10T13:06:31.656Z,98725.30
2019-03-10T13:09:21.436Z,98738.26
2019-03-10T13:12:11.378Z,98730.16
2019-03-10T13:15:01.528Z,98723.67
2019-03-10T13:17:51.763Z,98726.09
2019-03-10T13:20:41.691Z,98703.69
2019-03-10T13:23:31.445Z,98692.09
2019-03-10T13:26:21.812Z,98691.28
2019-03-10T13:29:12.056Z,98677.53
2019-03-10T13:32:02.133Z,98670.50
2019-03-10T13:34:52.190Z,98677.78
2019-03-10T13:37:41.551Z,98672.34
2019-03-10T13:40:31.685Z,98679.67
2019-03-10T13:43:21.490Z,98664.52
2019-03-10T13:46:11.191Z,98645.31
2019-03-10T13:49:00.740Z,98639.09
2019-03-10T13:51:50.457Z,98633.13
2019-03-10T13:54:40.395Z,98615.80
2019-03-10T13:57:30.516Z,98606.78
2019-03-10T14:00:22.548Z,98605.91
2019-03-10T14:03:12.223Z,98600.14
2019-03-10T14:06:02.372Z,98602.19
2019-03-10T14:08:52.932Z,98594.30
2019-03-10T14:11:42.692Z,98585.88
2019-03-10T14:14:32.335Z,98589.41
2019-03-10T14:17:22.374Z,98587.80
2019-03-10T14:20:12.405Z,98591.87
2019-03-10T14:23:02.192Z,98581.05
2019-03-10T14:25:52.127Z,98594.91
2019-03-10T14:28:43.280Z,98596.52
2019-03-10T14:31:33.620Z,98591.97
2019-03-10T14:34:24.045Z,98597.42
2019-03-10T14:37:13.288Z,98593.11
2019-03-10T14:40:02.964Z,98582.59
2019-03-10T14:42:53.324Z,98585.07
2019-03-10T14:45:43.002Z,98572.34
2019-03-10T14:48:32.933Z,98564.48
2019-03-10T14:51:22.551Z,98559.59
2019-03-10T14:54:12.496Z,98562.02
2019-03-10T14:57:02.973Z,98557.95
2019-03-10T14:59:53.028Z,98554.40
2019-03-10T15:02:43.110Z,98544.92
2019-03-10T15:05:32.860Z,98529.16
2019-03-10T15:08:22.758Z,98519.86
2019-03-10T15:11:12.636Z,98525.55
2019-03-10T15:14:02.439Z,98523.02
2019-03-10T15:16:52.630Z,98520.03
2019-03-10T15:19:42.574Z,98515.72
2019-03-10T15:22:32.222Z,98514.61
2019-03-10T15:25:24.778Z,98506.01
2019-03-10T15:28:13.896Z,98501.39
2019-03-10T15:31:03.664Z,98496.27
2019-03-10T15:33:53.628Z,98517.13
2019-03-10T15:36:43.144Z,98513.89
2019-03-10T15:39:32.805Z,98502.22
2019-03-10T15:42:22.755Z,98505.74
2019-03-10T15:45:13.322Z,98517.86
2019-03-10T15:48:03.479Z,98535.48
2019-03-10T15:50:53.387Z,98507.37
2019-03-10T15:53:43.446Z,98525.02
2019-03-10T15:56:33.606Z,98511.77
2019-03-10T15:59:23.282Z,98514.55
2019-03-10T16:02:13.203Z,98525.14
2019-03-10T16:05:03.669Z,98518.98
2019-03-10T16:07:53.753Z,98528.19
2019-03-10T16:10:44.956Z,98537.16
2019-03-10T16:13:35.130Z,98533.09
2019-03-10T16:16:25.335Z,98544.50
2019-03-10T16:19:15.090Z,98504.77
2019-03-10T16:22:04.913Z,98517.22
2019-03-10T16:24:55.248Z,98528.86
2019-03-10T16:27:45.428Z,98531.02
2019-03-10T16:30:35.380Z,98524.07
2019-03-10T16:33:25.634Z,98546.83
2019-03-10T16:36:15.831Z,98543.63
2019-03-10T16:39:09.048Z,98545.00
2019-03-10T16:41:58.982Z,98573.16
2019-03-10T16:44:48.334Z,98559.66
2019-03-10T16:47:38.248Z,98554.83
2019-03-10T16:50:28.236Z,98576.17
2019-03-10T16:53:27.197Z,98562.41
2019-03-10T16:56:17.033Z,98559.14
2019-03-10T16:59:06.610Z,98563.48
2019-03-10T17:01:56.310Z,98568.11
2019-03-10T17:04:45.780Z,98580.55
2019-03-10T17:07:35.808Z,98593.75
2019-03-10T17:10:26.269Z,98578.89
2019-03-10T17:13:15.972Z,98578.08
2019-03-10T17:16:06.128Z,98593.75
2019-03-10T17:18:56.219Z,98593.75
2019-03-10T17:21:46.264Z,98603.48
2019-03-10T17:24:36.477Z,98594.31
2019-03-10T17:27:26.392Z,98592.40
2019-03-10T17:30:18.896Z,98605.91
2019-03-10T17:33:10.285Z,98597.27
2019-03-10T17:36:00.409Z,98598.36
2019-03-10T17:38:49.977Z,98623.73
2019-03-10T17:41:40.360Z,98635.64
2019-03-10T17:44:40.362Z,98642.65
2019-03-10T17:47:22.021Z,98615.89
2019-03-10T17:50:13.298Z,98643.47
2019-03-10T17:53:03.477Z,98646.99
2019-03-10T17:55:53.255Z,98646.43
2019-03-10T17:58:43.448Z,98659.13
2019-03-10T18:01:33.888Z,98673.45
2019-03-10T18:04:24.030Z,98688.31
2019-03-10T18:07:14.189Z,98687.23
2019-03-10T18:10:04.799Z,98702.36
2019-03-10T18:12:54.896Z,98683.72
2019-03-10T18:15:45.042Z,98701.02
2019-03-10T18:18:35.102Z,98702.36
2019-03-10T18:21:26.029Z,98707.48
2019-03-10T18:24:16.026Z,98706.95
2019-03-10T18:27:06.403Z,98728.32
2019-03-10T18:29:55.873Z,98710.75
2019-03-10T18:32:46.437Z,98718.33
2019-03-10T18:35:36.278Z,98714.80
2019-03-10T18:38:26.230Z,98715.08
2019-03-10T18:41:16.403Z,98718.03
2019-03-10T18:44:05.865Z,98726.14
2019-03-10T18:46:54.827Z,98711.83
2019-03-10T18:49:44.570Z,98719.12
2019-03-10T18:52:34.443Z,98737.22
2019-03-10T18:55:23.820Z,98730.16
2019-03-10T18:58:19.750Z,98752.31
2019-03-10T19:01:09.681Z,98727.45
2019-03-10T19:03:59.513Z,98735.83
2019-03-10T19:06:49.849Z,98753.11
2019-03-10T19:09:39.519Z,98766.34
2019-03-10T19:12:29.019Z,98738.24
2019-03-10T19:15:18.881Z,98753.09
2019-03-10T19:18:08.596Z,98762.02
2019-03-10T19:20:59.258Z,98776.08
2019-03-10T19:23:50.225Z,98779.85
2019-03-10T19:26:40.137Z,98778.73
2019-03-10T19:29:30.213Z,98786.31
2019-03-10T19:32:19.543Z,98790.32
2019-03-10T19:35:10.022Z,98785.47
2019-03-10T19:38:00.107Z,98781.66
2019-03-10T19:40:49.585Z,98785.70
2019-03-10T19:43:39.815Z,98808.11
2019-03-10T19:46:30.219Z,98823.48
2019-03-10T19:49:20.095Z,98852.58
2019-03-10T19:52:09.956Z,98837.45
2019-03-10T19:54:59.888Z,98860.61
2019-03-10T19:57:49.940Z,98901.56
2019-03-10T20:00:40.187Z,98910.88
2019-03-10T20:03:30.032Z,98938.52
2019-03-10T20:06:20.205Z,99007.10
2019-03-10T20:09:10.582Z,99076.38
2019-03-10T20:12:02.420Z,99108.40
2019-03-10T20:14:51.663Z,99138.06
2019-03-10T20:17:41.226Z,99195.67
2019-03-10T20:20:32.232Z,99238.54
2019-03-10T20:23:22.400Z,99243.78
2019-03-10T20:26:12.660Z,99290.28
2019-03-10T20:29:02.358Z,99324.83
2019-03-10T20:31:52.779Z,99343.22
2019-03-10T20:34:42.655Z,99383.30
2019-03-10T20:37:34.259Z,99412.12
2019-03-10T20:40:24.033Z,99413.13
2019-03-10T20:43:13.530Z,99443.02
2019-03-10T20:46:03.389Z,99470.52
2019-03-10T20:48:52.830Z,99500.59
2019-03-10T20:51:42.673Z,99504.24
2019-03-10T20:54:32.621Z,99528.13
2019-03-10T20:57:22.153Z,99539.86
2019-03-10T21:00:16.366Z,99573.76
2019-03-10T21:03:07.476Z,99594.36
2019-03-10T21:05:57.600Z,99605.68
2019-03-10T21:08:47.115Z,99607.56
2019-03-10T21:11:37.189Z,99628.22
2019-03-10T21:14:27.547Z,99637.47
2019-03-10T21:17:17.840Z,99648.73
2019-03-10T21:20:10.071Z,99662.23
2019-03-10T21:22:59.833Z,99669.14
2019-03-10T21:25:50.108Z,99678.81
2019-03-10T21:28:56.490Z,99692.33
2019-03-10T21:32:01.819Z,99706.14
2019-03-10T21:34:55.525Z,99707.92
2019-03-10T21:37:51.072Z,99725.19
2019-03-10T21:40:41.892Z,99724.97
2019-03-10T21:43:31.619Z,99740.44
2019-03-10T21:46:21.101Z,99750.02
2019-03-10T21:49:10.808Z,99757.12
2019-03-10T21:52:00.660Z,99756.69
2019-03-10T21:54:50.545Z,99770.08
2019-03-10T21:57:40.403Z,99772.33
2019-03-10T22:00:30.696Z,99780.69
2019-03-10T22:03:20.564Z,99784.31
2019-03-10T22:06:10.077Z,99789.52
2019-03-10T22:09:00.906Z,99789.31
2019-03-10T22:11:52.362Z,99800.77
2019-03-10T22:14:42.169Z,99806.70
2019-03-10T22:17:35.300Z,99807.19
2019-03-10T22:20:25.728Z,99816.63
2019-03-10T22:23:15.563Z,99817.02
2019-03-10T22:26:05.749Z,99827.84
2019-03-10T22:28:55.781Z,99830.03
2019-03-10T22:31:45.912Z,99847.77
2019-03-10T22:34:35.809Z,99849.64
2019-03-10T22:37:25.755Z,99853.12
2019-03-10T22:40:15.780Z,99852.83
2019-03-10T22:43:05.547Z,99863.53
2019-03-10T22:45:55.281Z,99866.22
2019-03-10T22:48:44.897Z,99856.75
2019-03-10T22:51:34.724Z,99869.33
2019-03-10T22:54:24.783Z,99864.80
2019-03-10T22:57:15.041Z,99869.75
2019-03-10T23:00:11.445Z,99870.97
2019-03-10T23:03:02.874Z,99873.43
2019-03-10T23:05:53.092Z,99879.63
2019-03-10T23:08:55.550Z,99884.16
2019-03-10T23:11:45.320Z,99877.27
2019-03-10T23:14:34.867Z,99882.19
2019-03-10T23:17:24.987Z,99883.74
2019-03-10T23:20:14.955Z,99901.68
2019-03-10T23:23:04.628Z,99899.94
2019-03-10T23:25:54.932Z,99905.92
2019-03-10T23:28:44.509Z,99903.55
2019-03-10T23:31:34.593Z,99913.45
2019-03-10T23:34:24.361Z,99913.66
2019-03-10T23:37:14.478Z,99914.59
2019-03-10T23:40:04.766Z,99918.81
2019-03-10T23:42:55.248Z,99924.59
2019-03-10T23:45:45.309Z,99933.66
2019-03-10T23:48:35.477Z,99929.53
2019-03-10T23:51:25.510Z,99941.09
2019-03-10T23:54:15.664Z,99942.20
2019-03-10T23:57:05.406Z,99941.59
2019-03-10T23:59:54.959Z,99942.53
